Flight Track Log - Related Links

Times and Time Zones

All times are in EST time to prevent confusion due to time zone crossing. See the KAL1931 flight status page for this flight to view local times or setup timezone preferences in your user account.

Time Position Orientation Groundspeed Altitude Reporting Facility
EST Latitude Longitude Course Direction KTS MPH feet Rate Location/Type
Sat 06:59:00 PM 34.7847 127.5679 215° Southwest  Level Estimated
Sat 07:00:00 PM 34.7296 127.5205 215° Southwest  Level Estimated
Sat 07:01:00 PM 34.6745 127.4732 215° Southwest  Level Estimated
Sat 07:02:00 PM 34.6193 127.4260 215° Southwest  Level Estimated
Sat 07:03:00 PM 34.5642 127.3788 215° Southwest  Level Estimated
Sat 07:04:00 PM 34.5090 127.3317 215° Southwest  Level Estimated
Sat 07:05:00 PM 34.4538 127.2846 215° Southwest  Level Estimated
Sat 07:06:00 PM 34.3961 127.2356 215° Southwest  Level Estimated
Sat 07:07:00 PM 34.3385 127.1866 215° Southwest  Level Estimated
Sat 07:08:00 PM 34.2808 127.1377 215° Southwest  Level Estimated
Sat 07:09:00 PM 34.2231 127.0889 215° Southwest  Level Estimated
Sat 07:10:00 PM 34.1655 127.0401 215° Southwest  Level Estimated
Sat 07:11:00 PM 34.1077 126.9914 215° Southwest  Level Estimated
Sat 07:12:00 PM 34.0500 126.9428 215° Southwest  Level Estimated
Sat 07:13:00 PM 33.9922 126.8942 215° Southwest  Level Estimated
Sat 07:14:00 PM 33.9344 126.8457 215° Southwest  Level Estimated
Sat 07:15:00 PM 33.8767 126.7973 215° Southwest  Level Estimated
Sat 07:16:00 PM 33.8188 126.7489 215° Southwest  Level Estimated
Sat 07:17:00 PM 33.7610 126.7006 215° Southwest  Level Estimated
Sat 07:18:00 PM 33.7031 126.6524 215° Southwest  Level Estimated
Sat 07:19:00 PM 33.6453 126.6042 215° Southwest  Level Estimated
Sat 07:20:00 PM 33.5874 126.5561 215° Southwest  Level Estimated
Sat 07:21:00 PM 33.5295 126.5081 215° Southwest  Level Estimated
Sat 07:22:00 PM 33.5113 126.4930 215° Southwest  Level Estimated
Sat 07:23:00 PM 33.5113 126.4930 203° Southwest  Level Estimated
Sat 07:24:00 PM 33.5113 126.4930 203° Southwest  Level Estimated
Sat 07:25:00 PM 33.5113 126.4930 203° Southwest  Level Estimated
Sat 07:26:00 PM 33.5113 126.4930 203° Southwest  Level Estimated
Sat 07:27:00 PM 33.5113 126.4930 203° Southwest  Level Estimated

Login

Don't have an account? Register now (free) for customized features, flight alerts, and more!